• Join FlightAware (Why Join?)
  • Login
  • US Flag 
06:17AM EDT


 

Airport Tracker/Info


-or-


 

Live Flight TrackerFlight Track Log ✈ N53NW ✈ 18-Oct-2013 ✈ KSTL - KSDF

Flight Track Log - Related Links

Times and Time Zones

All times are in EDT time to prevent confusion due to time zone crossing. See the N53NW flight status page for this flight to view local times or setup timezone preferences in your user account.

Time Position Orientation Groundspeed Altitude Reporting Facility
EDT Latitude Longitude Course Direction KTS MPH feet Rate Location/Type
06:10PM 38.7667 -90.4167 339° North 226 260 4,000  Level Gateway (St. Louis) TRACON
06:11PM 38.8333 -90.4500 339° North 260 299 5,500 2,640 Climbing Gateway (St. Louis) TRACON
06:12PM 38.9078 -90.4294 12° North 287 330 10,000 3,420 Climbing Kansas City Center
06:13PM 38.9019 -90.3244 94° East 305 351 13,600 2,700 Climbing Kansas City Center
06:14PM 38.8569 -90.2167 118° Southeast 319 367 15,700 2,160 Climbing Kansas City Center
06:15PM 38.8128 -90.1089 118° Southeast 334 384 18,100 2,460 Climbing Kansas City Center
06:16PM 38.7572 -89.9697 117° Southeast 370 426 20,900 1,380 Climbing Kansas City Center
06:17PM 38.7064 -89.8478 118° Southeast 383 441 21,000  Climbing Kansas City Center
06:18PM 38.6550 -89.7264 118° Southeast 387 445 21,000  Level Kansas City Center
06:19PM 38.6122 -89.5789 110° East 403 464 21,100  Climbing Kansas City Center
06:21PM 38.5875 -89.4369 103° East 408 470 21,000 -60 Descending Kansas City Center
06:22PM 38.5644 -89.2950 102° East 408 470 21,000  Level Kansas City Center
06:23PM 38.5392 -89.1428 102° East 409 471 21,000  Level Kansas City Center
06:24PM 38.5158 -89.0008 102° East 408 470 21,000  Level Kansas City Center
06:25PM 38.4894 -88.8483 102° East 409 471 21,000  Level Kansas City Center
06:26PM 38.4658 -88.7078 102° East 406 467 21,000  Level Kansas City Center
06:27PM 38.4389 -88.5608 103° East 404 465 21,000  Level Kansas City Center
06:28PM 38.4153 -88.4208 102° East 403 464 21,000  Level Kansas City Center
06:29PM 38.3903 -88.2814 103° East 402 463 21,000  Level Kansas City Center
06:30PM 38.3711 -88.1394 100° East 404 465 21,000  Level Kansas City Center
06:31PM 38.3686 -88.0233 92° East 411 473 21,100  Climbing Indianapolis Center
06:32PM 38.3617 -87.8775 93° East 411 473 21,000 -60 Descending Indianapolis Center
06:33PM 38.3544 -87.7339 94° East 407 468 21,000  Level Indianapolis Center
06:34PM 38.3464 -87.5878 94° East 411 473 21,000  Level Indianapolis Center
06:35PM 38.3392 -87.4428 94° East 410 472 21,000  Level Indianapolis Center
06:36PM 38.3306 -87.2972 94° East 409 471 21,000  Level Indianapolis Center
06:37PM 38.3100 -87.1378 99° East 405 466 21,000  Level Indianapolis Center
06:38PM 38.2928 -86.9964 99° East 406 467 21,100  Climbing Indianapolis Center
06:39PM 38.2747 -86.8542 99° East 409 471 21,000 -900 Descending Indianapolis Center
06:40PM 38.2567 -86.7131 99° East 406 467 19,300 -1,740 Descending Indianapolis Center
06:41PM 38.2400 -86.5850 99° East 375 432 17,500 -2,760 Descending Indianapolis Center
06:42PM 38.2203 -86.4375 100° East 354 407 13,600 -3,120 Descending Indianapolis Center
06:43PM 38.2061 -86.3269 99° East 322 371 11,100 -2,040 Descending Indianapolis Center
06:44PM 38.2100 -86.2247 87° East 305 351 9,500 -1,500 Descending Indianapolis Center
06:45PM 38.2308 -86.1300 74° East 282 325 8,000 -1,800 Descending Indianapolis Center
06:46PM 38.2506 -86.0342 75° East 281 323 5,800 -2,040 Descending Indianapolis Center
06:47PM 38.2692 -85.9461 75° East 270 311 3,900 -1,140 Descending Indianapolis Center
06:48PM 38.2894 -85.8553 74° East 242 278 3,500 -600 Descending Indianapolis Center
06:49PM 38.2994 -85.7919 79° East 209 241 2,700 -540 Descending Indianapolis Center
06:50PM 38.2733 -85.7594 136° Southeast 181 208 2,400 -240 Descending Indianapolis Center
06:51PM 38.2314 -85.7508 171° South 175 201 2,300 -120 Descending Indianapolis Center
06:54PM 38.1741 -85.7365 130° Southeast  Level Estimated